createdAt,value
2019-02-19T00:01:08.354Z,-0.20
2019-02-19T00:03:37.613Z,-0.30
2019-02-19T00:06:06.827Z,-0.30
2019-02-19T00:08:39.505Z,-0.30
2019-02-19T00:11:08.869Z,-0.30
2019-02-19T00:13:38.162Z,-0.30
2019-02-19T00:16:07.501Z,-0.40
2019-02-19T00:18:36.773Z,-0.40
2019-02-19T00:21:06.002Z,-0.40
2019-02-19T00:23:35.341Z,-0.40
2019-02-19T00:26:14.387Z,-0.50
2019-02-19T00:28:43.714Z,-0.40
2019-02-19T00:31:13.072Z,-0.40
2019-02-19T00:33:42.273Z,-0.40
2019-02-19T00:36:11.635Z,-0.50
2019-02-19T00:38:41.032Z,-0.50
2019-02-19T00:41:10.337Z,-0.50
2019-02-19T00:43:39.532Z,-0.50
2019-02-19T00:46:08.757Z,-0.50
2019-02-19T00:48:38.354Z,-0.60
2019-02-19T00:51:07.997Z,-0.50
2019-02-19T00:53:37.454Z,-0.60
2019-02-19T00:56:07.164Z,-0.50
2019-02-19T00:58:36.669Z,-0.50
2019-02-19T01:01:06.173Z,-0.60
2019-02-19T01:03:35.693Z,-0.60
2019-02-19T01:06:05.328Z,-0.50
2019-02-19T01:08:34.886Z,-0.50
2019-02-19T01:11:04.319Z,-0.60
2019-02-19T01:13:33.816Z,-0.60
2019-02-19T01:16:03.444Z,-0.50
2019-02-19T01:18:32.784Z,-0.60
2019-02-19T01:21:02.455Z,-0.60
2019-02-19T01:23:31.935Z,-0.60
2019-02-19T01:26:01.703Z,-0.60
2019-02-19T01:28:31.461Z,-0.70
2019-02-19T01:31:01.325Z,-0.70
2019-02-19T01:33:31.013Z,-0.60
2019-02-19T01:36:00.549Z,-0.70
2019-02-19T01:38:30.277Z,-0.70
2019-02-19T01:41:00.077Z,-0.80
2019-02-19T01:43:29.700Z,-0.60
2019-02-19T01:45:59.314Z,-0.60
2019-02-19T01:48:28.868Z,-0.80
2019-02-19T01:50:58.543Z,-0.70
2019-02-19T01:53:31.002Z,-0.70
2019-02-19T01:56:00.301Z,-0.80
2019-02-19T01:58:29.576Z,-0.90
2019-02-19T02:00:58.832Z,-0.80
2019-02-19T02:03:28.035Z,-0.80
2019-02-19T02:05:57.370Z,-0.80
2019-02-19T02:08:26.708Z,-0.80
2019-02-19T02:10:56.109Z,-0.90
2019-02-19T02:13:25.597Z,-0.90
2019-02-19T02:15:55.217Z,-0.90
2019-02-19T02:18:24.637Z,-1.00
2019-02-19T02:20:54.348Z,-1.00
2019-02-19T02:23:23.888Z,-1.00
2019-02-19T02:25:53.614Z,-1.00
2019-02-19T02:28:23.034Z,-0.80
2019-02-19T02:30:52.319Z,-0.90
2019-02-19T02:33:21.863Z,-1.00
2019-02-19T02:35:51.331Z,-1.00
2019-02-19T02:38:21.076Z,-1.10
2019-02-19T02:40:50.857Z,-1.10
2019-02-19T02:43:20.475Z,-1.10
2019-02-19T02:45:53.210Z,-1.00
2019-02-19T02:48:21.259Z,-1.00
2019-02-19T02:50:50.891Z,-0.90
2019-02-19T02:53:20.376Z,-0.90
2019-02-19T02:55:50.095Z,-1.00
2019-02-19T02:58:19.671Z,-0.90
2019-02-19T03:00:49.046Z,-1.00
2019-02-19T03:03:18.562Z,-1.00
2019-02-19T03:06:29.336Z,-1.00
2019-02-19T03:08:58.623Z,-1.00
2019-02-19T03:11:28.087Z,-1.00
2019-02-19T03:13:57.390Z,-1.00
2019-02-19T03:16:26.816Z,-1.10
2019-02-19T03:18:56.144Z,-1.10
2019-02-19T03:21:25.431Z,-1.10
2019-02-19T03:23:54.680Z,-1.10
2019-02-19T03:26:24.056Z,-1.10
2019-02-19T03:28:53.419Z,-1.10
2019-02-19T03:31:22.677Z,-1.00
2019-02-19T03:33:52.054Z,-1.00
2019-02-19T03:36:21.572Z,-1.00
2019-02-19T03:38:50.815Z,-1.00
2019-02-19T03:41:20.199Z,-1.10
2019-02-19T03:43:49.399Z,-1.00
2019-02-19T03:46:18.779Z,-1.10
2019-02-19T03:48:48.255Z,-1.10
2019-02-19T03:51:17.696Z,-1.20
2019-02-19T03:53:46.968Z,-1.10
2019-02-19T03:56:16.488Z,-1.10
2019-02-19T03:58:45.882Z,-1.20
2019-02-19T04:01:15.289Z,-1.10
2019-02-19T04:03:44.961Z,-1.10
2019-02-19T04:06:14.402Z,-1.10
2019-02-19T04:08:44.006Z,-1.20
2019-02-19T04:11:13.463Z,-1.20
2019-02-19T04:13:43.122Z,-1.20
2019-02-19T04:16:20.792Z,-1.30
2019-02-19T04:18:43.923Z,-1.20
2019-02-19T04:21:13.888Z,-1.20
2019-02-19T04:23:43.487Z,-1.20
2019-02-19T04:26:14.081Z,-1.20
2019-02-19T04:28:43.838Z,-1.30
2019-02-19T04:31:13.470Z,-1.20
2019-02-19T04:33:43.030Z,-1.20
2019-02-19T04:36:12.583Z,-1.30
2019-02-19T04:38:42.126Z,-1.30
2019-02-19T04:41:11.468Z,-1.30
2019-02-19T04:43:40.692Z,-1.40
2019-02-19T04:46:10.008Z,-1.30
2019-02-19T04:48:39.545Z,-1.30
2019-02-19T04:51:08.970Z,-1.30
2019-02-19T04:53:38.424Z,-1.30
2019-02-19T04:56:07.802Z,-1.30
2019-02-19T04:58:37.220Z,-1.30
2019-02-19T05:01:06.659Z,-1.40
2019-02-19T05:03:36.373Z,-1.40
2019-02-19T05:06:05.799Z,-1.30
2019-02-19T05:08:35.304Z,-1.30
2019-02-19T05:11:05.322Z,-1.30
2019-02-19T05:13:35.006Z,-1.20
2019-02-19T05:16:04.761Z,-1.20
2019-02-19T05:18:34.452Z,-1.20
2019-02-19T05:21:04.246Z,-1.20
2019-02-19T05:23:33.771Z,-1.30
2019-02-19T05:26:03.627Z,-1.30
2019-02-19T05:28:33.115Z,-1.20
2019-02-19T05:31:02.492Z,-1.30
2019-02-19T05:33:32.186Z,-1.20
2019-02-19T05:36:01.650Z,-1.20
2019-02-19T05:38:31.247Z,-1.30
2019-02-19T05:41:00.816Z,-1.30
2019-02-19T05:43:30.528Z,-1.20
2019-02-19T05:46:00.107Z,-1.30
2019-02-19T05:48:29.764Z,-1.40
2019-02-19T05:50:59.317Z,-1.30
2019-02-19T05:53:28.766Z,-1.40
2019-02-19T05:55:58.447Z,-1.40
2019-02-19T05:58:28.302Z,-1.40
2019-02-19T06:00:57.952Z,-1.40
2019-02-19T06:03:28.053Z,-1.50
2019-02-19T06:05:57.991Z,-1.40
2019-02-19T06:08:27.966Z,-1.50
2019-02-19T06:10:57.929Z,-1.50
2019-02-19T06:13:27.864Z,-1.40
2019-02-19T06:15:57.561Z,-1.50
2019-02-19T06:18:27.132Z,-1.60
2019-02-19T06:20:56.686Z,-1.60
2019-02-19T06:23:26.228Z,-1.60
2019-02-19T06:25:56.210Z,-1.40
2019-02-19T06:28:25.990Z,-1.40
2019-02-19T06:30:55.696Z,-1.50
2019-02-19T06:33:25.442Z,-1.40
2019-02-19T06:36:03.628Z,-1.30
2019-02-19T06:38:33.390Z,-1.40
2019-02-19T06:41:03.245Z,-1.40
2019-02-19T06:43:32.805Z,-1.40
2019-02-19T06:46:02.387Z,-1.40
2019-02-19T06:48:54.318Z,-1.40
2019-02-19T06:51:24.264Z,-1.30
2019-02-19T06:53:54.126Z,-1.30
2019-02-19T06:56:23.863Z,-1.30
2019-02-19T06:58:53.567Z,-1.30
2019-02-19T07:01:45.037Z,-1.10
2019-02-19T07:04:20.533Z,-0.90
2019-02-19T07:06:50.008Z,-0.60
2019-02-19T07:09:19.440Z,-0.40
2019-02-19T07:11:49.324Z,0.20
2019-02-19T07:14:19.221Z,0.50
2019-02-19T07:16:48.878Z,0.70
2019-02-19T07:19:19.202Z,0.90
2019-02-19T07:21:54.268Z,1.20
2019-02-19T07:24:30.296Z,1.50
2019-02-19T07:27:00.211Z,1.80
2019-02-19T07:29:30.139Z,2.10
2019-02-19T07:32:03.431Z,2.40
2019-02-19T07:34:33.111Z,2.70
2019-02-19T07:37:02.732Z,3.00
2019-02-19T07:39:32.550Z,3.30
2019-02-19T07:42:02.229Z,4.00
2019-02-19T07:44:32.173Z,5.00
2019-02-19T07:47:02.226Z,6.20
2019-02-19T07:49:31.734Z,7.10
2019-02-19T07:52:01.433Z,8.00
2019-02-19T07:54:34.348Z,9.00
2019-02-19T07:57:04.287Z,10.10
2019-02-19T07:59:33.743Z,10.60
2019-02-19T08:02:12.589Z,11.30
2019-02-19T08:04:42.550Z,12.40
2019-02-19T08:07:12.157Z,13.00
2019-02-19T08:09:42.151Z,13.40
2019-02-19T08:12:11.843Z,14.10
2019-02-19T08:17:18.168Z,14.80
2019-02-19T08:19:48.844Z,14.40
2019-02-19T08:22:39.173Z,14.30
2019-02-19T08:25:08.789Z,13.60
2019-02-19T08:27:38.443Z,14.80
2019-02-19T08:30:11.052Z,15.80
2019-02-19T08:32:40.832Z,16.00
2019-02-19T08:35:10.247Z,16.60
2019-02-19T08:37:39.664Z,17.60
2019-02-19T08:40:09.214Z,17.80
2019-02-19T08:42:38.578Z,17.70
2019-02-19T08:45:08.143Z,18.20
2019-02-19T08:47:42.790Z,18.30
2019-02-19T08:50:08.562Z,18.50
2019-02-19T08:52:37.765Z,18.70
2019-02-19T08:55:07.048Z,18.60
2019-02-19T08:57:36.285Z,18.00
2019-02-19T09:00:06.282Z,18.60
2019-02-19T09:02:35.579Z,19.10
2019-02-19T09:05:04.831Z,19.20
2019-02-19T09:07:34.067Z,19.20
2019-02-19T09:10:03.230Z,19.40
2019-02-19T09:12:32.524Z,19.40
2019-02-19T09:15:04.747Z,20.00
2019-02-19T09:17:33.940Z,19.10
2019-02-19T09:20:03.345Z,19.50
2019-02-19T09:22:32.572Z,20.40
2019-02-19T09:25:01.735Z,20.60
2019-02-19T09:27:32.193Z,20.90
2019-02-19T09:30:01.380Z,20.50
2019-02-19T09:32:30.510Z,20.70
2019-02-19T09:34:59.612Z,19.50
2019-02-19T09:37:28.741Z,18.30
2019-02-19T09:39:57.875Z,19.90
2019-02-19T09:42:27.024Z,21.60
2019-02-19T09:44:56.156Z,21.80
2019-02-19T09:47:25.287Z,22.30
2019-02-19T09:49:54.548Z,22.30
2019-02-19T09:52:23.655Z,22.10
2019-02-19T09:54:52.789Z,21.10
2019-02-19T09:57:21.940Z,22.10
2019-02-19T09:59:51.107Z,21.90
2019-02-19T10:02:23.196Z,21.50
2019-02-19T10:04:52.406Z,19.80
2019-02-19T10:07:21.556Z,20.90
2019-02-19T10:09:50.667Z,20.90
2019-02-19T10:12:21.060Z,20.50
2019-02-19T10:14:50.182Z,20.80
2019-02-19T10:17:19.399Z,20.90
2019-02-19T10:19:48.608Z,20.00
2019-02-19T10:22:17.783Z,20.20
2019-02-19T10:24:46.952Z,20.20
2019-02-19T10:27:16.073Z,20.80
2019-02-19T10:29:45.217Z,21.30
2019-02-19T10:32:14.396Z,22.00
2019-02-19T10:34:43.588Z,22.10
2019-02-19T10:37:12.714Z,21.10
2019-02-19T10:39:41.848Z,21.60
2019-02-19T10:42:11.058Z,20.30
2019-02-19T10:44:40.224Z,21.20
2019-02-19T10:47:09.426Z,21.90
2019-02-19T10:49:38.553Z,22.30
2019-02-19T10:52:07.715Z,22.10
2019-02-19T10:54:36.895Z,22.90
2019-02-19T10:57:06.023Z,23.20
2019-02-19T10:59:35.155Z,23.30
2019-02-19T11:02:04.265Z,21.50
2019-02-19T11:04:33.489Z,22.90
2019-02-19T11:07:02.583Z,23.20
2019-02-19T11:09:31.681Z,22.40
2019-02-19T11:12:01.773Z,23.30
2019-02-19T11:14:30.869Z,24.00
2019-02-19T11:16:59.995Z,21.60
2019-02-19T11:19:29.107Z,22.60
2019-02-19T11:21:58.241Z,23.30
2019-02-19T11:24:46.480Z,22.90
2019-02-19T11:27:16.749Z,22.00
2019-02-19T11:29:46.100Z,23.20
2019-02-19T11:32:15.200Z,23.60
2019-02-19T11:34:44.293Z,22.30
2019-02-19T11:37:13.431Z,23.10
2019-02-19T11:39:42.629Z,23.20
2019-02-19T11:42:11.812Z,22.30
2019-02-19T11:44:40.956Z,20.20
2019-02-19T11:47:10.163Z,22.40
2019-02-19T11:49:39.323Z,22.70
2019-02-19T11:52:08.511Z,22.60
2019-02-19T11:54:37.664Z,23.50
2019-02-19T11:57:06.747Z,23.50
2019-02-19T11:59:37.458Z,22.70
2019-02-19T12:02:11.311Z,23.20
2019-02-19T12:04:40.420Z,23.60
2019-02-19T12:07:09.527Z,23.00
2019-02-19T12:09:38.823Z,23.20
2019-02-19T12:12:07.915Z,22.80
2019-02-19T12:14:37.025Z,23.80
2019-02-19T12:17:06.099Z,24.30
2019-02-19T12:19:35.244Z,24.20
2019-02-19T12:22:04.404Z,23.50
2019-02-19T12:24:33.519Z,23.20
2019-02-19T12:27:02.628Z,22.50
2019-02-19T12:29:31.736Z,22.20
2019-02-19T12:32:00.847Z,21.20
2019-02-19T12:34:30.004Z,21.00
2019-02-19T12:36:59.188Z,21.00
2019-02-19T12:39:28.309Z,20.80
2019-02-19T12:41:57.504Z,20.40
2019-02-19T12:44:26.672Z,20.10
2019-02-19T12:46:55.788Z,19.00
2019-02-19T12:49:24.887Z,17.10
2019-02-19T12:51:55.550Z,17.80
2019-02-19T12:54:24.942Z,17.70
2019-02-19T12:56:54.036Z,16.50
2019-02-19T12:59:23.139Z,16.00
2019-02-19T13:01:52.276Z,16.40
2019-02-19T13:04:21.412Z,16.70
2019-02-19T13:06:50.521Z,16.60
2019-02-19T13:09:19.648Z,16.50
2019-02-19T13:11:48.941Z,16.70
2019-02-19T13:14:18.115Z,17.00
2019-02-19T13:16:47.227Z,17.20
2019-02-19T13:19:16.324Z,17.70
2019-02-19T13:21:45.451Z,18.20
2019-02-19T13:24:14.644Z,18.60
2019-02-19T13:26:43.738Z,19.00
2019-02-19T13:29:12.957Z,19.30
2019-02-19T13:31:42.094Z,19.40
2019-02-19T13:34:11.320Z,19.60
2019-02-19T13:36:40.405Z,19.20
2019-02-19T13:39:09.502Z,19.00
2019-02-19T13:41:41.045Z,18.90
2019-02-19T13:44:10.139Z,19.10
2019-02-19T13:46:39.256Z,18.50
2019-02-19T13:49:12.213Z,18.30
2019-02-19T13:51:39.212Z,18.30
2019-02-19T13:54:33.152Z,18.60
2019-02-19T13:57:02.263Z,18.90
2019-02-19T13:59:31.372Z,19.00
2019-02-19T14:02:00.528Z,18.40
2019-02-19T14:04:29.658Z,18.30
2019-02-19T14:06:58.864Z,18.10
2019-02-19T14:09:27.959Z,17.50
2019-02-19T14:11:57.127Z,17.90
2019-02-19T14:14:37.448Z,18.40
2019-02-19T14:17:09.123Z,18.30
2019-02-19T14:20:06.121Z,17.70
2019-02-19T14:22:54.832Z,17.50
2019-02-19T14:25:45.647Z,17.60
2019-02-19T14:28:42.580Z,18.20
2019-02-19T14:31:38.276Z,18.50
2019-02-19T14:34:25.352Z,18.90
2019-02-19T14:37:12.985Z,19.00
2019-02-19T14:40:10.007Z,19.30
2019-02-19T14:43:07.770Z,18.50
2019-02-19T14:45:58.924Z,18.30
2019-02-19T14:48:45.775Z,18.10
2019-02-19T14:51:33.924Z,18.00
2019-02-19T14:54:28.072Z,17.40
2019-02-19T14:57:13.891Z,17.10
2019-02-19T14:59:53.641Z,17.50
2019-02-19T15:02:47.751Z,18.00
2019-02-19T15:05:48.154Z,18.20
2019-02-19T15:08:48.564Z,17.80
2019-02-19T15:11:51.806Z,18.20
2019-02-19T15:14:27.963Z,17.80
2019-02-19T15:17:28.135Z,17.40
2019-02-19T15:20:14.916Z,17.40
2019-02-19T15:22:58.812Z,17.00
2019-02-19T15:25:49.943Z,17.00
2019-02-19T15:28:27.193Z,16.40
2019-02-19T15:31:24.432Z,16.70
2019-02-19T15:34:11.196Z,16.20
2019-02-19T15:37:10.756Z,16.60
2019-02-19T15:40:09.575Z,17.00
2019-02-19T15:42:56.408Z,17.20
2019-02-19T15:45:44.456Z,16.90
2019-02-19T15:48:32.522Z,16.20
2019-02-19T15:51:23.465Z,16.40
2019-02-19T15:54:10.356Z,16.40
2019-02-19T15:56:58.631Z,16.40
2019-02-19T15:59:39.775Z,16.10
2019-02-19T16:02:34.062Z,15.90
2019-02-19T16:05:40.836Z,15.60
2019-02-19T16:08:31.744Z,15.30
2019-02-19T16:11:13.007Z,15.30
2019-02-19T16:14:16.867Z,15.00
2019-02-19T16:17:07.782Z,14.70
2019-02-19T16:19:57.274Z,14.50
2019-02-19T16:22:36.508Z,14.30
2019-02-19T16:25:19.311Z,14.00
2019-02-19T16:28:04.494Z,13.60
2019-02-19T16:30:47.287Z,13.30
2019-02-19T16:33:28.676Z,12.90
2019-02-19T16:36:22.734Z,12.70
2019-02-19T16:39:02.237Z,12.60
2019-02-19T16:41:50.336Z,12.50
2019-02-19T16:44:47.440Z,12.30
2019-02-19T16:47:47.385Z,12.00
2019-02-19T16:50:32.504Z,11.80
2019-02-19T16:53:13.960Z,11.70
2019-02-19T16:56:08.040Z,11.50
2019-02-19T16:58:49.424Z,11.10
2019-02-19T17:01:26.125Z,11.00
2019-02-19T17:04:13.317Z,10.90
2019-02-19T17:06:56.779Z,10.60
2019-02-19T17:09:38.853Z,10.40
2019-02-19T17:12:16.974Z,10.10
2019-02-19T17:15:05.033Z,10.10
2019-02-19T17:17:51.775Z,10.00
2019-02-19T17:20:52.031Z,10.00
2019-02-19T17:23:38.788Z,9.90
2019-02-19T17:26:28.611Z,9.90
2019-02-19T17:29:16.694Z,9.80
2019-02-19T17:32:20.063Z,9.70
2019-02-19T17:35:17.236Z,9.60
2019-02-19T17:38:20.652Z,9.50
2019-02-19T17:41:17.704Z,9.50
2019-02-19T17:44:01.538Z,9.40
2019-02-19T17:46:49.693Z,9.30
2019-02-19T17:49:26.619Z,9.10
2019-02-19T17:52:33.072Z,9.20
2019-02-19T17:55:23.945Z,9.20
2019-02-19T17:58:01.112Z,9.20
2019-02-19T18:00:36.645Z,9.10
2019-02-19T18:03:27.509Z,9.00
2019-02-19T18:06:07.803Z,9.00
2019-02-19T18:08:55.884Z,9.00
2019-02-19T18:11:37.936Z,8.90
2019-02-19T18:14:26.823Z,8.90
2019-02-19T18:17:17.677Z,8.80
2019-02-19T18:19:46.788Z,8.80
2019-02-19T18:22:15.896Z,8.70
2019-02-19T18:24:44.991Z,8.70
2019-02-19T18:27:14.183Z,8.70
2019-02-19T18:29:43.300Z,8.70
2019-02-19T18:32:12.447Z,8.60
2019-02-19T18:34:41.573Z,8.50
2019-02-19T18:37:10.676Z,8.50
2019-02-19T18:39:39.803Z,8.60
2019-02-19T18:42:08.948Z,8.50
2019-02-19T18:44:38.087Z,8.50
2019-02-19T18:47:07.215Z,8.40
2019-02-19T18:49:36.428Z,8.40
2019-02-19T18:52:05.551Z,8.40
2019-02-19T18:54:34.728Z,8.30
2019-02-19T18:57:03.849Z,8.30
2019-02-19T18:59:33.031Z,8.20
2019-02-19T19:02:02.207Z,8.20
2019-02-19T19:04:31.348Z,8.10
2019-02-19T19:07:00.879Z,8.10
2019-02-19T19:09:29.976Z,8.10
2019-02-19T19:11:59.081Z,8.00
2019-02-19T19:14:28.298Z,7.90
2019-02-19T19:16:57.513Z,7.90
2019-02-19T19:19:26.731Z,7.90
2019-02-19T19:21:55.916Z,7.80
2019-02-19T19:24:25.005Z,7.80
2019-02-19T19:26:54.206Z,7.70
2019-02-19T19:29:23.624Z,7.60
2019-02-19T19:31:52.739Z,7.60
2019-02-19T19:34:21.864Z,7.50
2019-02-19T19:36:50.992Z,7.50
2019-02-19T19:39:20.236Z,7.50
2019-02-19T19:41:49.436Z,7.50
2019-02-19T19:44:18.687Z,7.50
2019-02-19T19:46:48.900Z,7.40
2019-02-19T19:49:18.015Z,7.40
2019-02-19T19:51:47.182Z,7.30
2019-02-19T19:54:16.306Z,7.30
2019-02-19T19:56:45.487Z,7.30
2019-02-19T19:59:14.672Z,7.20
2019-02-19T20:01:43.873Z,7.20
2019-02-19T20:04:12.995Z,7.20
2019-02-19T20:06:42.116Z,7.10
2019-02-19T20:09:11.266Z,7.10
2019-02-19T20:11:40.428Z,7.00
2019-02-19T20:14:09.596Z,7.00
2019-02-19T20:16:38.739Z,6.90
2019-02-19T20:19:07.896Z,6.90
2019-02-19T20:21:37.080Z,6.90
2019-02-19T20:24:06.263Z,6.90
2019-02-19T20:26:37.173Z,6.90
2019-02-19T20:29:06.312Z,6.90
2019-02-19T20:31:35.409Z,6.80
2019-02-19T20:34:04.508Z,6.80
2019-02-19T20:36:33.608Z,6.80
2019-02-19T20:39:02.816Z,6.80
2019-02-19T20:41:31.919Z,6.70
2019-02-19T20:44:01.050Z,6.60
2019-02-19T20:46:30.165Z,6.60
2019-02-19T20:48:59.303Z,6.50
2019-02-19T20:51:36.203Z,6.60
2019-02-19T20:53:59.342Z,6.60
2019-02-19T20:56:28.531Z,6.60
2019-02-19T20:58:57.719Z,6.60
2019-02-19T21:01:26.875Z,6.60
2019-02-19T21:03:56.005Z,6.50
2019-02-19T21:06:25.115Z,6.40
2019-02-19T21:08:54.299Z,6.40
2019-02-19T21:11:23.479Z,6.40
2019-02-19T21:13:52.632Z,6.30
2019-02-19T21:16:21.808Z,6.30
2019-02-19T21:18:50.947Z,6.30
2019-02-19T21:21:20.118Z,6.30
2019-02-19T21:23:49.265Z,6.30
2019-02-19T21:26:18.349Z,6.30
2019-02-19T21:28:47.452Z,6.20
2019-02-19T21:31:16.569Z,6.20
2019-02-19T21:33:45.682Z,6.10
2019-02-19T21:36:14.831Z,6.10
2019-02-19T21:38:43.969Z,6.10
2019-02-19T21:41:13.159Z,6.10
2019-02-19T21:43:42.392Z,6.00
2019-02-19T21:46:11.584Z,6.00
2019-02-19T21:48:47.766Z,6.00
2019-02-19T21:51:11.535Z,5.90
2019-02-19T21:53:40.623Z,6.00
2019-02-19T21:56:09.752Z,5.90
2019-02-19T21:58:39.117Z,5.90
2019-02-19T22:01:08.262Z,5.90
2019-02-19T22:03:37.368Z,5.80
2019-02-19T22:06:06.496Z,5.80
2019-02-19T22:08:35.630Z,5.80
2019-02-19T22:11:04.761Z,5.80
2019-02-19T22:13:33.915Z,5.70
2019-02-19T22:16:03.108Z,5.80
2019-02-19T22:18:32.303Z,5.80
2019-02-19T22:21:26.469Z,5.70
2019-02-19T22:23:55.631Z,5.60
2019-02-19T22:26:24.716Z,5.60
2019-02-19T22:28:53.904Z,5.60
2019-02-19T22:31:23.016Z,5.60
2019-02-19T22:33:52.156Z,5.50
2019-02-19T22:36:21.267Z,5.50
2019-02-19T22:38:50.423Z,5.50
2019-02-19T22:41:19.588Z,5.50
2019-02-19T22:43:48.712Z,5.40
2019-02-19T22:46:17.904Z,5.40
2019-02-19T22:48:47.088Z,5.40
2019-02-19T22:51:16.285Z,5.40
2019-02-19T22:53:54.723Z,5.40
2019-02-19T22:56:27.192Z,5.40
2019-02-19T22:58:56.308Z,5.40
2019-02-19T23:01:32.652Z,5.40
2019-02-19T23:04:02.035Z,5.30
2019-02-19T23:06:31.229Z,5.30
2019-02-19T23:09:00.402Z,5.30
2019-02-19T23:11:29.598Z,5.30
2019-02-19T23:13:58.759Z,5.20
2019-02-19T23:16:27.887Z,5.20
2019-02-19T23:18:57.033Z,5.20
2019-02-19T23:21:26.228Z,5.20
2019-02-19T23:23:55.432Z,5.10
2019-02-19T23:26:24.559Z,5.10
2019-02-19T23:28:53.632Z,5.00
2019-02-19T23:31:22.796Z,5.00
2019-02-19T23:33:51.947Z,5.00
2019-02-19T23:36:46.228Z,4.90
2019-02-19T23:39:15.568Z,5.00
2019-02-19T23:41:44.693Z,4.90
2019-02-19T23:44:13.864Z,4.90
2019-02-19T23:46:44.052Z,4.90
2019-02-19T23:49:13.368Z,4.90
2019-02-19T23:51:42.544Z,4.90
2019-02-19T23:54:11.675Z,4.90
2019-02-19T23:56:40.872Z,4.80
2019-02-19T23:59:09.993Z,4.70
